Time;durP1;ratioP1;P1;durP2;ratioP2;P2;SDS_P1;SDS_P2;PMS_P1;PMS_P2;Temp;Humidity;BMP_temperature;BMP_pressure;BME280_temperature;BME280_humidity;BME280_pressure;Samples;Min_cycle;Max_cycle;Signal;HPM_P1;HPM_P2
2023/01/18 00:02:00;;;;;;;12.95;6.68;;;2.20;74.60;;;;;;5064644;28;20255;-67
2023/01/18 00:04:27;;;;;;;19.27;10.65;;;2.20;74.70;;;;;;5065306;28;20207;-67
2023/01/18 00:06:54;;;;;;;17.35;9.85;;;2.20;74.90;;;;;;5052821;28;20190;-67
2023/01/18 00:09:23;;;;;;;9.93;5.63;;;2.20;74.90;;;;;;5053155;28;20218;-66
2023/01/18 00:11:50;;;;;;;12.05;7.35;;;2.30;74.80;;;;;;5052783;28;20236;-66
2023/01/18 00:14:19;;;;;;;8.93;5.93;;;2.20;74.80;;;;;;5052939;28;21011;-66
2023/01/18 00:16:46;;;;;;;8.05;4.75;;;2.20;74.70;;;;;;5052651;28;20551;-67
2023/01/18 00:19:13;;;;;;;8.77;4.40;;;2.20;74.80;;;;;;5053201;28;20221;-66
2023/01/18 00:21:40;;;;;;;5.25;3.40;;;2.10;74.90;;;;;;5061036;28;20259;-66
2023/01/18 00:24:13;;;;;;;7.70;4.65;;;2.10;75.10;;;;;;5072832;28;20221;-66
2023/01/18 00:26:42;;;;;;;10.75;4.75;;;2.10;74.90;;;;;;5072527;28;20198;-66
2023/01/18 00:29:10;;;;;;;10.32;5.18;;;2.10;74.40;;;;;;5072485;28;20193;-66
2023/01/18 00:31:39;;;;;;;5.60;3.53;;;2.10;74.30;;;;;;5072421;28;20712;-66
2023/01/18 00:34:06;;;;;;;4.78;2.65;;;2.10;74.40;;;;;;5072451;28;20721;-67
2023/01/18 00:36:33;;;;;;;5.20;2.67;;;2.10;74.80;;;;;;5072389;28;20200;-66
2023/01/18 00:39:01;;;;;;;7.72;3.53;;;2.10;74.90;;;;;;5072444;28;20194;-67
2023/01/18 00:41:28;;;;;;;5.93;3.25;;;2.10;74.40;;;;;;5072228;28;20186;-66
2023/01/18 00:43:54;;;;;;;14.20;7.20;;;2.10;74.30;;;;;;5072199;28;20228;-66
2023/01/18 00:46:23;;;;;;;14.93;8.43;;;2.00;73.80;;;;;;5072420;28;20198;-66
2023/01/18 00:48:53;;;;;;;10.43;5.97;;;2.00;73.80;;;;;;5072200;28;20197;-66
2023/01/18 00:51:23;;;;;;;12.43;6.50;;;2.00;73.80;;;;;;5071984;28;20193;-66
2023/01/18 00:53:51;;;;;;;9.05;4.78;;;1.90;73.40;;;;;;5072159;28;20197;-66
2023/01/18 00:56:20;;;;;;;10.85;4.97;;;1.80;73.20;;;;;;5072393;28;20251;-66
2023/01/18 00:58:48;;;;;;;8.52;5.05;;;1.80;73.40;;;;;;5071873;28;20216;-66
2023/01/18 01:01:15;;;;;;;9.68;4.60;;;1.80;73.70;;;;;;5071967;28;20197;-66
2023/01/18 01:06:43;;;;;;;7.13;4.07;;;1.60;73.50;;;;;;5060358;28;20282;-66
2023/01/18 01:09:11;;;;;;;7.18;4.07;;;1.60;73.40;;;;;;5071133;28;20202;-66
2023/01/18 01:11:38;;;;;;;7.35;3.75;;;1.50;72.90;;;;;;5056713;28;20231;-66
2023/01/18 01:27:49;;;;;;;11.45;6.15;;;1.10;75.00;;;;;;5052011;28;20322;-66
2023/01/18 01:30:17;;;;;;;6.38;4.90;;;1.10;75.90;;;;;;5052157;28;20190;-67
2023/01/18 01:32:44;;;;;;;11.23;4.57;;;1.10;76.20;;;;;;5064076;28;20193;-67
2023/01/18 01:35:11;;;;;;;10.95;4.47;;;1.00;76.80;;;;;;5071676;28;20233;-66
2023/01/18 01:37:40;;;;;;;7.07;4.68;;;1.00;77.10;;;;;;5071764;28;20279;-67
2023/01/18 01:40:08;;;;;;;7.45;4.00;;;1.00;78.30;;;;;;5071787;28;20190;-66
2023/01/18 01:42:35;;;;;;;6.78;4.55;;;0.80;79.40;;;;;;5071764;28;20581;-67
2023/01/18 01:45:02;;;;;;;7.75;4.22;;;0.80;80.00;;;;;;5071543;28;20359;-67
2023/01/18 01:47:36;;;;;;;6.07;4.05;;;0.80;79.70;;;;;;5071701;28;20242;-66
2023/01/18 01:50:11;;;;;;;6.05;4.10;;;0.80;79.70;;;;;;5072101;28;20208;-66
2023/01/18 01:52:43;;;;;;;4.88;3.15;;;0.80;80.20;;;;;;5071396;28;20232;-66
2023/01/18 01:55:16;;;;;;;7.20;3.63;;;0.80;80.50;;;;;;5071590;28;20189;-66
2023/01/18 01:57:46;;;;;;;5.35;3.00;;;0.80;80.60;;;;;;5071385;28;20229;-66
2023/01/18 02:00:18;;;;;;;5.18;3.28;;;0.90;81.10;;;;;;5071667;28;20198;-66
2023/01/18 02:02:48;;;;;;;5.60;3.15;;;0.90;81.20;;;;;;5072383;28;20217;-66
2023/01/18 02:05:17;;;;;;;4.43;2.50;;;1.00;81.40;;;;;;5075293;28;20243;-66
2023/01/18 02:07:47;;;;;;;4.18;2.70;;;1.10;81.30;;;;;;5075171;28;20235;-67
2023/01/18 02:10:14;;;;;;;5.72;2.75;;;1.10;81.10;;;;;;5055130;28;20263;-66
2023/01/18 02:12:44;;;;;;;4.22;2.55;;;1.20;80.80;;;;;;5055210;28;20197;-67
2023/01/18 02:15:12;;;;;;;4.93;3.33;;;1.20;80.90;;;;;;5055558;28;20218;-68
2023/01/18 02:18:07;;;;;;;5.13;2.97;;;1.30;80.90;;;;;;5055035;28;20186;-66
2023/01/18 02:21:10;;;;;;;5.50;3.30;;;1.40;80.90;;;;;;5067094;28;20201;-66
2023/01/18 02:24:11;;;;;;;5.38;3.20;;;1.40;80.50;;;;;;5072362;28;20647;-66
2023/01/18 02:26:59;;;;;;;3.70;2.70;;;1.50;80.50;;;;;;5070617;28;20208;-66
2023/01/18 02:30:00;;;;;;;5.38;3.00;;;1.60;80.30;;;;;;5057366;28;20213;-66
2023/01/18 02:32:42;;;;;;;4.43;2.70;;;1.70;79.70;;;;;;5066992;28;20182;-66
2023/01/18 02:35:11;;;;;;;5.40;3.38;;;1.70;79.50;;;;;;5054573;28;20568;-66
2023/01/18 02:37:50;;;;;;;4.85;3.88;;;1.70;79.40;;;;;;5054732;28;20664;-66
2023/01/18 02:40:24;;;;;;;4.63;3.58;;;1.60;79.10;;;;;;5054470;28;20230;-66
2023/01/18 02:48:33;;;;;;;6.63;3.17;;;1.70;79.00;;;;;;5055989;28;20546;-67
2023/01/18 02:51:03;;;;;;;4.90;3.63;;;1.70;78.50;;;;;;5074447;28;20696;-67
2023/01/18 02:53:31;;;;;;;5.28;4.00;;;1.70;78.10;;;;;;5074397;28;20251;-66
2023/01/18 02:56:03;;;;;;;7.35;3.58;;;1.70;78.40;;;;;;5074483;28;20239;-66
2023/01/18 02:58:34;;;;;;;6.25;4.15;;;1.70;78.50;;;;;;5074402;28;20208;-67
2023/01/18 03:01:07;;;;;;;6.22;3.88;;;1.80;78.60;;;;;;5074028;28;20185;-66
2023/01/18 03:03:35;;;;;;;5.15;3.80;;;1.70;78.30;;;;;;5074253;28;20575;-67
2023/01/18 03:06:05;;;;;;;6.28;3.50;;;1.70;78.80;;;;;;5074301;28;20194;-67
2023/01/18 03:08:36;;;;;;;4.18;2.75;;;1.70;78.60;;;;;;5074192;28;20239;-66
2023/01/18 03:11:07;;;;;;;7.70;3.90;;;1.60;78.80;;;;;;5074083;28;20200;-66
2023/01/18 03:13:49;;;;;;;5.05;3.05;;;1.60;78.70;;;;;;5073594;28;20251;-66
2023/01/18 03:16:22;;;;;;;5.30;3.22;;;1.60;79.60;;;;;;5074061;28;20224;-66
2023/01/18 03:19:03;;;;;;;6.10;3.20;;;1.60;79.70;;;;;;5074106;28;20207;-66
2023/01/18 03:21:43;;;;;;;5.90;3.17;;;1.60;79.90;;;;;;5074379;28;20350;-66
2023/01/18 03:24:10;;;;;;;6.30;3.30;;;1.70;80.20;;;;;;5074189;28;20274;-66
2023/01/18 03:26:42;;;;;;;4.90;3.00;;;1.70;80.20;;;;;;5073980;28;20186;-66
2023/01/18 03:34:52;;;;;;;4.70;2.80;;;1.90;79.80;;;;;;5066590;28;20555;-66
2023/01/18 03:37:23;;;;;;;5.32;2.53;;;1.90;79.90;;;;;;5059811;28;20187;-66
2023/01/18 03:39:54;;;;;;;4.45;2.97;;;1.90;79.90;;;;;;5059929;28;20263;-66
2023/01/18 03:42:25;;;;;;;4.32;2.55;;;1.90;80.00;;;;;;5072948;28;20193;-66
2023/01/18 03:44:59;;;;;;;4.30;3.03;;;2.00;79.80;;;;;;5069396;28;20225;-67
2023/01/18 03:47:28;;;;;;;4.25;2.72;;;2.00;79.70;;;;;;5065514;28;20186;-66
2023/01/18 03:49:56;;;;;;;5.13;2.78;;;2.00;79.40;;;;;;5073648;28;20228;-66
2023/01/18 03:52:25;;;;;;;3.95;2.00;;;2.00;79.30;;;;;;5073655;28;20530;-67
2023/01/18 03:55:01;;;;;;;3.33;2.00;;;2.10;78.90;;;;;;5073251;28;20243;-67
2023/01/18 03:57:33;;;;;;;2.75;1.80;;;2.10;78.60;;;;;;5073271;28;20197;-67
2023/01/18 04:00:03;;;;;;;3.60;1.45;;;2.20;77.80;;;;;;5073368;28;20237;-66
2023/01/18 04:02:32;;;;;;;2.78;1.52;;;2.20;78.60;;;;;;5071057;28;20290;-66
2023/01/18 04:05:02;;;;;;;2.60;1.25;;;2.20;77.50;;;;;;5053062;28;20218;-66
2023/01/18 04:07:30;;;;;;;2.90;1.50;;;2.30;77.30;;;;;;5053386;28;20194;-66
2023/01/18 04:09:57;;;;;;;3.05;1.27;;;2.30;76.50;;;;;;5053271;28;20190;-66
2023/01/18 04:12:24;;;;;;;2.00;1.20;;;2.40;76.00;;;;;;5053751;28;20208;-67
2023/01/18 04:14:52;;;;;;;2.95;1.55;;;2.50;75.40;;;;;;5053052;28;20244;-66
2023/01/18 04:17:20;;;;;;;2.97;1.25;;;2.60;75.10;;;;;;5052911;28;20252;-66
2023/01/18 04:19:48;;;;;;;2.10;1.00;;;2.70;74.60;;;;;;5052966;28;20198;-66
2023/01/18 04:22:15;;;;;;;2.70;1.50;;;2.70;74.00;;;;;;5053188;28;20202;-66
2023/01/18 04:24:43;;;;;;;2.08;1.13;;;2.80;73.60;;;;;;5052161;28;20261;-67
2023/01/18 04:27:10;;;;;;;2.30;1.30;;;2.90;73.30;;;;;;5052276;28;20208;-66
2023/01/18 04:29:37;;;;;;;2.40;1.45;;;2.90;72.80;;;;;;5052688;28;20230;-68
2023/01/18 04:32:05;;;;;;;3.65;1.42;;;3.00;72.60;;;;;;5052697;28;20234;-67
2023/01/18 04:34:32;;;;;;;2.30;1.20;;;3.10;72.30;;;;;;5052517;28;20194;-66
2023/01/18 04:37:01;;;;;;;4.03;1.83;;;3.10;71.40;;;;;;5052599;28;20210;-66
2023/01/18 04:39:28;;;;;;;3.83;1.55;;;3.10;71.10;;;;;;5058631;28;20182;-66
2023/01/18 04:41:55;;;;;;;2.85;1.55;;;3.10;71.00;;;;;;5072776;28;20255;-66
2023/01/18 04:44:22;;;;;;;5.13;2.20;;;3.20;71.10;;;;;;5072237;28;20230;-66
2023/01/18 04:46:49;;;;;;;2.30;1.30;;;3.20;71.20;;;;;;5070905;28;20617;-65
2023/01/18 04:49:17;;;;;;;3.88;1.50;;;3.30;71.20;;;;;;5057259;28;20586;-67
2023/01/18 04:51:46;;;;;;;3.35;1.30;;;3.30;71.00;;;;;;5055520;28;20595;-66
2023/01/18 04:54:17;;;;;;;2.58;1.60;;;3.30;70.90;;;;;;5062338;28;20186;-67
2023/01/18 04:56:45;;;;;;;3.50;1.77;;;3.40;70.90;;;;;;5061085;28;20756;-67
2023/01/18 04:59:15;;;;;;;2.60;1.83;;;3.40;70.70;;;;;;5056268;28;20553;-66
2023/01/18 05:01:43;;;;;;;2.83;1.33;;;3.40;70.50;;;;;;5062568;28;20191;-66
2023/01/18 05:04:10;;;;;;;6.05;1.30;;;3.50;70.50;;;;;;5052011;28;20703;-67
2023/01/18 05:06:37;;;;;;;3.05;1.77;;;3.50;70.50;;;;;;5068951;28;20181;-67
2023/01/18 05:09:04;;;;;;;2.33;1.20;;;3.50;70.50;;;;;;5072145;28;20186;-67
2023/01/18 05:11:33;;;;;;;2.40;1.60;;;3.50;70.10;;;;;;5072591;28;20632;-66
2023/01/18 05:14:00;;;;;;;3.10;1.65;;;3.40;69.00;;;;;;5072277;28;20186;-67
2023/01/18 05:16:28;;;;;;;2.75;1.35;;;3.50;69.50;;;;;;5072478;28;20239;-66
2023/01/18 05:18:55;;;;;;;2.95;1.50;;;3.50;69.80;;;;;;5054644;28;20223;-66
2023/01/18 05:21:22;;;;;;;2.35;1.10;;;3.50;69.80;;;;;;5052330;28;20263;-66
2023/01/18 05:23:49;;;;;;;4.93;0.98;;;3.50;69.10;;;;;;5051928;28;20576;-66
2023/01/18 05:26:19;;;;;;;1.88;1.05;;;3.50;67.40;;;;;;5051957;28;20198;-66
2023/01/18 05:28:48;;;;;;;1.90;0.90;;;3.50;67.50;;;;;;5051733;28;20190;-66
2023/01/18 05:31:19;;;;;;;2.15;0.98;;;3.50;67.10;;;;;;5051811;28;20201;-66
2023/01/18 05:33:47;;;;;;;3.75;1.00;;;3.50;67.70;;;;;;5051982;28;20190;-66
2023/01/18 05:36:14;;;;;;;2.03;0.90;;;3.50;66.40;;;;;;5052379;28;20186;-66
2023/01/18 05:38:41;;;;;;;2.95;1.33;;;3.60;66.30;;;;;;5056230;28;20198;-66
2023/01/18 05:41:08;;;;;;;2.75;0.90;;;3.60;65.70;;;;;;5056146;28;20194;-66
2023/01/18 05:43:37;;;;;;;2.20;0.90;;;3.60;65.10;;;;;;5056040;28;20277;-67
2023/01/18 05:46:05;;;;;;;2.50;0.90;;;3.70;65.00;;;;;;5055890;28;20229;-66
2023/01/18 05:48:33;;;;;;;1.80;0.95;;;3.70;64.30;;;;;;5055945;28;20278;-66
2023/01/18 05:51:00;;;;;;;2.20;0.98;;;3.70;63.80;;;;;;5056312;28;20191;-67
2023/01/18 05:53:27;;;;;;;2.55;1.00;;;3.70;63.80;;;;;;5055682;28;20193;-66
2023/01/18 05:55:56;;;;;;;1.65;0.70;;;3.80;63.90;;;;;;5055717;28;20642;-66
2023/01/18 05:58:23;;;;;;;1.80;0.80;;;3.80;63.30;;;;;;5055514;28;20187;-66
2023/01/18 06:00:51;;;;;;;4.65;0.90;;;3.80;62.20;;;;;;5055353;28;20186;-65
2023/01/18 06:03:19;;;;;;;2.67;1.00;;;3.80;62.60;;;;;;5055282;28;20186;-66
2023/01/18 06:05:47;;;;;;;2.15;0.80;;;3.80;62.60;;;;;;5055027;28;20218;-66
2023/01/18 06:08:15;;;;;;;2.40;1.10;;;3.80;62.50;;;;;;5055458;28;20545;-67
2023/01/18 06:10:42;;;;;;;2.75;1.33;;;3.80;62.20;;;;;;5055042;28;20182;-66
2023/01/18 06:13:10;;;;;;;1.70;0.80;;;3.80;62.30;;;;;;5055158;28;20182;-66
2023/01/18 06:15:38;;;;;;;6.80;1.70;;;3.80;62.10;;;;;;5055208;28;20191;-67
2023/01/18 06:18:07;;;;;;;2.40;1.50;;;3.80;61.90;;;;;;5055260;28;20213;-66
2023/01/18 06:20:36;;;;;;;2.88;1.10;;;3.70;61.80;;;;;;5055293;28;20194;-67
2023/01/18 06:23:03;;;;;;;2.33;0.90;;;3.70;61.90;;;;;;5047837;28;20183;-66
2023/01/18 06:25:30;;;;;;;2.13;0.90;;;3.70;61.80;;;;;;5047425;28;20300;-67
2023/01/18 06:27:58;;;;;;;4.10;1.20;;;3.70;61.90;;;;;;5049071;28;20187;-66
2023/01/18 06:30:25;;;;;;;2.53;1.40;;;3.70;61.80;;;;;;5065242;28;20212;-66
2023/01/18 06:32:52;;;;;;;1.92;0.80;;;3.70;61.60;;;;;;5054051;28;20191;-66
2023/01/18 06:35:20;;;;;;;2.05;1.15;;;3.70;61.60;;;;;;5053798;28;20238;-66
2023/01/18 06:37:51;;;;;;;1.70;0.90;;;3.70;61.60;;;;;;5054177;28;20201;-66
2023/01/18 06:40:18;;;;;;;3.25;1.27;;;3.70;61.60;;;;;;5054883;28;20200;-66
2023/01/18 06:42:48;;;;;;;2.60;1.23;;;3.70;61.50;;;;;;5054554;28;20206;-66
2023/01/18 06:45:18;;;;;;;3.08;1.08;;;3.70;61.50;;;;;;5054165;28;20583;-67
2023/01/18 06:47:45;;;;;;;2.35;0.95;;;3.70;61.60;;;;;;5052884;28;20815;-66
2023/01/18 06:50:14;;;;;;;2.35;1.48;;;3.70;61.60;;;;;;5041028;28;20189;-67
2023/01/18 06:52:42;;;;;;;1.95;0.90;;;3.70;61.10;;;;;;5054055;28;20653;-66
2023/01/18 06:55:12;;;;;;;2.00;1.08;;;3.70;61.40;;;;;;5034666;28;20191;-67
2023/01/18 06:57:39;;;;;;;2.00;1.17;;;3.60;61.10;;;;;;5043010;28;20193;-67
2023/01/18 07:00:12;;;;;;;3.38;1.60;;;3.60;61.30;;;;;;5054733;28;20191;-67
2023/01/18 07:02:39;;;;;;;1.60;0.75;;;3.60;61.30;;;;;;5054577;28;20653;-67
2023/01/18 07:05:06;;;;;;;3.30;1.00;;;3.50;60.70;;;;;;5054427;28;20304;-67
2023/01/18 07:07:35;;;;;;;2.08;1.00;;;3.50;60.50;;;;;;5051484;28;20190;-68
2023/01/18 07:10:02;;;;;;;3.53;1.15;;;3.50;60.30;;;;;;5033721;28;20249;-67
2023/01/18 07:12:30;;;;;;;5.78;1.40;;;3.50;60.10;;;;;;5046890;28;20187;-67
2023/01/18 07:14:57;;;;;;;2.70;1.40;;;3.50;59.60;;;;;;5054309;28;20539;-66
2023/01/18 07:17:24;;;;;;;4.20;1.63;;;3.40;59.90;;;;;;5052650;28;20190;-67
2023/01/18 07:19:51;;;;;;;3.63;2.15;;;3.40;60.00;;;;;;5053932;28;20293;-66
2023/01/18 07:22:18;;;;;;;3.80;2.00;;;3.40;60.20;;;;;;5042549;28;20658;-67
2023/01/18 07:24:45;;;;;;;2.42;1.50;;;3.40;60.90;;;;;;5044089;28;20721;-67
2023/01/18 07:27:12;;;;;;;2.53;1.02;;;3.40;61.10;;;;;;5044852;28;20262;-67
2023/01/18 07:29:41;;;;;;;7.57;4.55;;;3.40;60.20;;;;;;5046802;28;20278;-67
2023/01/18 07:32:07;;;;;;;5.82;1.95;;;3.50;59.90;;;;;;5053058;28;20273;-67
2023/01/18 07:34:34;;;;;;;2.88;1.30;;;3.50;60.00;;;;;;5034508;28;20745;-66
2023/01/18 07:37:01;;;;;;;3.05;1.42;;;3.40;59.90;;;;;;5033740;28;20226;-67
2023/01/18 07:39:30;;;;;;;5.90;2.10;;;3.40;60.50;;;;;;5034426;28;20282;-67
2023/01/18 07:41:57;;;;;;;6.00;2.85;;;3.40;60.20;;;;;;5041820;28;20223;-67
2023/01/18 07:44:25;;;;;;;5.53;2.05;;;3.50;60.10;;;;;;5052555;28;20312;-67
2023/01/18 07:46:53;;;;;;;4.20;1.63;;;3.60;60.00;;;;;;5071434;28;20190;-67
2023/01/18 07:49:20;;;;;;;1.98;1.05;;;3.50;59.40;;;;;;5073268;28;20641;-67
2023/01/18 07:51:47;;;;;;;7.35;4.10;;;3.60;59.70;;;;;;5055937;28;20343;-67
2023/01/18 07:54:16;;;;;;;4.93;2.17;;;3.60;59.70;;;;;;5068372;28;20190;-67
2023/01/18 07:56:42;;;;;;;2.80;1.70;;;3.60;59.70;;;;;;5059894;28;20198;-67
2023/01/18 07:59:09;;;;;;;5.45;2.25;;;3.70;59.60;;;;;;5064454;28;20284;-66
2023/01/18 08:01:36;;;;;;;2.70;1.45;;;3.70;59.70;;;;;;5063553;28;20190;-67
2023/01/18 08:04:05;;;;;;;4.72;1.75;;;3.80;59.70;;;;;;5067701;28;20200;-67
2023/01/18 08:06:32;;;;;;;5.78;3.03;;;3.90;59.30;;;;;;5063477;28;20616;-67
2023/01/18 08:08:58;;;;;;;11.90;6.07;;;4.10;59.40;;;;;;5066392;28;20284;-67
2023/01/18 08:11:26;;;;;;;4.10;2.22;;;4.20;58.40;;;;;;5064527;28;20283;-66
2023/01/18 08:13:53;;;;;;;6.40;3.38;;;4.20;58.20;;;;;;5067651;28;20689;-67
2023/01/18 08:16:20;;;;;;;4.03;2.50;;;4.40;58.10;;;;;;5059642;28;20289;-67
2023/01/18 08:18:49;;;;;;;4.40;1.90;;;4.70;58.90;;;;;;5060589;28;20241;-67
2023/01/18 08:21:17;;;;;;;2.00;0.90;;;4.90;58.00;;;;;;5058350;28;20230;-67
2023/01/18 08:23:44;;;;;;;2.58;1.17;;;5.10;56.70;;;;;;5061715;28;20285;-67
2023/01/18 08:26:13;;;;;;;2.85;1.50;;;5.20;56.30;;;;;;5067124;28;20316;-66
2023/01/18 08:28:43;;;;;;;3.60;2.00;;;5.30;56.00;;;;;;5064932;28;20202;-66
2023/01/18 08:31:13;;;;;;;4.80;2.40;;;5.30;56.20;;;;;;5062677;28;20205;-67
2023/01/18 08:33:44;;;;;;;5.03;3.17;;;5.30;55.20;;;;;;5065247;28;20267;-67
2023/01/18 08:36:12;;;;;;;3.83;2.38;;;5.40;55.90;;;;;;5064546;28;20240;-67
2023/01/18 08:38:41;;;;;;;4.85;2.28;;;5.40;55.90;;;;;;5064038;28;20289;-67
2023/01/18 08:41:08;;;;;;;3.83;1.70;;;5.40;55.90;;;;;;5059988;28;20281;-67
2023/01/18 08:43:35;;;;;;;2.50;1.33;;;5.50;55.50;;;;;;5062258;28;20206;-67
2023/01/18 08:46:03;;;;;;;4.25;1.60;;;5.50;55.80;;;;;;5060140;28;20242;-67
2023/01/18 08:48:29;;;;;;;2.70;1.17;;;5.90;56.10;;;;;;5062761;28;20686;-68
2023/01/18 08:51:01;;;;;;;2.47;1.10;;;6.40;56.40;;;;;;5063779;28;20222;-67
2023/01/18 08:53:28;;;;;;;2.47;1.17;;;6.80;55.20;;;;;;5067066;28;20227;-67
2023/01/18 08:55:56;;;;;;;1.95;0.90;;;7.10;54.40;;;;;;5065946;28;20278;-67
2023/01/18 08:58:23;;;;;;;4.85;2.25;;;7.20;52.50;;;;;;5063898;28;20197;-67
2023/01/18 09:00:50;;;;;;;3.00;1.40;;;7.20;50.90;;;;;;5063711;28;20306;-67
2023/01/18 09:03:20;;;;;;;4.40;2.88;;;7.90;52.70;;;;;;5062825;28;20250;-67
2023/01/18 09:05:46;;;;;;;3.20;1.65;;;8.80;53.30;;;;;;5060967;28;20227;-67
2023/01/18 09:08:13;;;;;;;6.30;1.70;;;9.70;52.10;;;;;;5061463;28;20228;-67
2023/01/18 09:10:40;;;;;;;2.45;1.20;;;10.50;48.80;;;;;;5065585;28;20227;-67
2023/01/18 09:13:09;;;;;;;2.75;1.30;;;11.20;46.20;;;;;;5062811;28;20289;-67
2023/01/18 09:15:37;;;;;;;1.80;0.70;;;11.70;44.80;;;;;;5066322;28;20247;-67
2023/01/18 09:18:05;;;;;;;2.72;0.90;;;12.20;43.10;;;;;;5061937;28;20285;-67
2023/01/18 09:20:32;;;;;;;2.92;1.15;;;12.80;43.70;;;;;;5062668;28;20290;-67
2023/01/18 09:23:03;;;;;;;2.10;0.90;;;13.40;41.50;;;;;;5062166;28;20212;-67
2023/01/18 09:25:30;;;;;;;2.17;0.90;;;13.90;40.10;;;;;;5060087;28;20246;-67
2023/01/18 09:27:57;;;;;;;1.90;1.10;;;14.30;38.60;;;;;;5063702;28;20592;-67
2023/01/18 09:30:25;;;;;;;2.00;1.00;;;14.40;37.00;;;;;;5064457;28;20519;-67
2023/01/18 09:32:53;;;;;;;2.00;0.90;;;14.90;38.10;;;;;;5065692;28;20441;-67
2023/01/18 09:35:19;;;;;;;6.43;1.07;;;15.30;37.20;;;;;;5062188;28;20445;-67
2023/01/18 09:37:46;;;;;;;2.10;1.13;;;15.80;35.40;;;;;;5064882;28;20522;-67
2023/01/18 09:40:18;;;;;;;2.47;1.20;;;16.10;33.90;;;;;;5065226;28;20451;-67
2023/01/18 09:42:47;;;;;;;3.00;1.30;;;16.30;33.30;;;;;;5062956;28;20528;-67
2023/01/18 09:45:26;;;;;;;2.40;1.30;;;16.60;32.60;;;;;;5065099;28;20523;-67
2023/01/18 09:48:01;;;;;;;2.20;1.20;;;16.80;30.90;;;;;;5051063;28;20490;-67
2023/01/18 09:50:29;;;;;;;1.77;0.80;;;16.90;30.50;;;;;;5059883;28;20516;-67
2023/01/18 09:53:02;;;;;;;4.13;0.83;;;17.10;30.60;;;;;;5051171;28;20540;-67
2023/01/18 09:55:41;;;;;;;1.80;0.80;;;17.30;30.30;;;;;;5063299;28;20479;-67
2023/01/18 09:58:20;;;;;;;1.90;1.00;;;17.50;30.00;;;;;;5051400;28;20861;-67
2023/01/18 10:00:49;;;;;;;2.57;0.80;;;17.60;29.20;;;;;;5059239;28;20815;-68
2023/01/18 10:03:22;;;;;;;2.90;0.90;;;17.80;29.30;;;;;;5060448;28;20518;-67
2023/01/18 10:06:07;;;;;;;2.10;0.80;;;18.10;28.70;;;;;;5063103;28;20570;-68
2023/01/18 10:08:36;;;;;;;2.57;0.90;;;18.30;28.60;;;;;;5061344;28;20447;-68
2023/01/18 10:11:09;;;;;;;1.90;0.70;;;18.60;28.40;;;;;;5059240;28;20532;-67
2023/01/18 10:13:47;;;;;;;2.00;0.90;;;18.90;28.50;;;;;;5060084;28;20527;-67
2023/01/18 10:16:15;;;;;;;6.03;1.37;;;19.20;28.20;;;;;;5063769;28;20442;-67
2023/01/18 10:18:45;;;;;;;1.70;0.60;;;19.30;27.30;;;;;;5063554;28;20505;-67
2023/01/18 10:21:31;;;;;;;1.90;0.60;;;19.50;27.20;;;;;;5062943;28;20818;-67
2023/01/18 10:24:21;;;;;;;2.87;0.67;;;19.80;27.00;;;;;;5066780;28;20522;-67
2023/01/18 10:26:51;;;;;;;1.73;0.80;;;20.00;26.10;;;;;;5065002;28;20566;-67
2023/01/18 10:29:26;;;;;;;1.80;0.70;;;20.10;26.30;;;;;;5067653;28;20434;-67
2023/01/18 10:32:00;;;;;;;2.33;1.00;;;20.10;25.40;;;;;;5064252;28;20475;-67
2023/01/18 10:34:31;;;;;;;2.10;1.07;;;20.10;26.00;;;;;;5068712;28;20436;-67
2023/01/18 10:37:04;;;;;;;1.60;0.73;;;20.30;25.20;;;;;;5067193;28;20447;-67
2023/01/18 10:39:36;;;;;;;2.10;0.80;;;20.50;25.50;;;;;;5060344;28;20434;-67
2023/01/18 10:42:08;;;;;;;2.00;0.70;;;20.30;24.70;;;;;;5062523;28;20531;-67
2023/01/18 10:44:35;;;;;;;1.80;0.70;;;20.20;25.20;;;;;;5067285;28;20548;-67
2023/01/18 10:47:03;;;;;;;2.30;0.70;;;20.60;25.10;;;;;;5066579;28;20494;-67
2023/01/18 10:49:36;;;;;;;1.97;0.60;;;20.70;24.40;;;;;;5066099;28;20533;-67
2023/01/18 10:52:23;;;;;;;1.97;0.70;;;20.50;24.20;;;;;;5067924;28;20817;-67
2023/01/18 10:54:51;;;;;;;2.20;0.90;;;20.50;24.50;;;;;;5066994;28;20846;-67
2023/01/18 10:57:24;;;;;;;2.20;0.90;;;20.80;25.10;;;;;;5066965;28;20835;-67
2023/01/18 10:59:52;;;;;;;2.10;0.80;;;21.00;24.90;;;;;;5071046;28;20485;-67
2023/01/18 11:02:26;;;;;;;2.40;1.00;;;21.20;24.80;;;;;;5061985;28;20446;-67
2023/01/18 11:05:15;;;;;;;2.00;1.00;;;21.50;25.10;;;;;;5065800;28;20447;-67
2023/01/18 11:07:43;;;;;;;2.63;1.10;;;21.20;24.60;;;;;;5068386;28;20579;-68
2023/01/18 11:10:24;;;;;;;2.00;0.83;;;21.30;25.40;;;;;;5065714;28;20521;-67
2023/01/18 11:12:53;;;;;;;1.87;0.80;;;21.40;24.80;;;;;;5066526;28;20445;-67
2023/01/18 11:15:32;;;;;;;1.70;0.70;;;21.60;24.50;;;;;;5064754;28;21110;-67
2023/01/18 11:18:08;;;;;;;2.13;0.90;;;21.70;24.30;;;;;;5066040;28;20440;-67
2023/01/18 11:20:42;;;;;;;1.70;0.80;;;21.20;24.60;;;;;;5066078;28;20499;-67
2023/01/18 11:23:19;;;;;;;1.90;0.70;;;20.90;24.60;;;;;;5064248;28;20477;-67
2023/01/18 11:25:52;;;;;;;1.50;0.50;;;20.40;25.10;;;;;;5065425;28;21018;-67
2023/01/18 11:28:21;;;;;;;1.50;0.50;;;19.90;25.00;;;;;;5066828;28;20440;-67
2023/01/18 11:30:53;;;;;;;1.60;0.50;;;19.90;25.80;;;;;;5064243;28;20523;-67
2023/01/18 11:33:23;;;;;;;1.60;0.50;;;20.10;26.20;;;;;;5066160;28;20479;-67
2023/01/18 11:35:56;;;;;;;2.00;0.83;;;20.50;25.30;;;;;;5066082;28;20483;-67
2023/01/18 11:38:27;;;;;;;2.17;0.80;;;20.90;25.10;;;;;;5063186;28;20432;-67
2023/01/18 11:41:16;;;;;;;2.90;1.47;;;20.80;23.90;;;;;;5068314;28;20444;-67
2023/01/18 11:44:04;;;;;;;1.80;0.70;;;20.20;24.00;;;;;;5066926;28;20494;-67
2023/01/18 11:46:42;;;;;;;1.60;0.60;;;20.00;24.70;;;;;;5069241;28;21070;-67
2023/01/18 11:49:27;;;;;;;1.60;0.60;;;20.30;24.60;;;;;;5065641;28;20471;-67
2023/01/18 11:52:00;;;;;;;1.60;0.60;;;20.30;24.70;;;;;;5065755;28;20949;-67
2023/01/18 11:54:34;;;;;;;2.00;1.00;;;20.10;24.40;;;;;;5064830;28;20926;-67
2023/01/18 11:57:02;;;;;;;1.87;0.93;;;19.70;24.80;;;;;;5064800;28;20903;-67
2023/01/18 11:59:30;;;;;;;1.80;0.73;;;19.30;24.70;;;;;;5065688;28;20928;-67
2023/01/18 12:02:31;;;;;;;2.73;0.90;;;18.90;25.20;;;;;;5068134;28;20454;-67
2023/01/18 12:05:27;;;;;;;1.70;0.67;;;18.30;24.70;;;;;;5073664;28;20513;-67
2023/01/18 12:08:05;;;;;;;3.30;1.13;;;17.50;25.70;;;;;;5067938;28;20480;-67
2023/01/18 12:10:44;;;;;;;2.33;1.37;;;16.80;26.90;;;;;;5053977;28;20436;-67
2023/01/18 12:13:32;;;;;;;2.00;1.10;;;16.10;27.30;;;;;;5055437;28;21029;-66
2023/01/18 12:16:12;;;;;;;2.27;1.30;;;15.50;27.60;;;;;;5053635;28;20453;-67
2023/01/18 12:19:12;;;;;;;2.30;1.57;;;14.90;28.70;;;;;;5067138;28;20926;-66
2023/01/18 12:21:55;;;;;;;2.63;1.70;;;14.00;29.40;;;;;;5071028;28;20439;-67
2023/01/18 12:24:41;;;;;;;3.83;1.57;;;13.20;30.30;;;;;;5067769;28;20432;-66
2023/01/18 12:27:16;;;;;;;2.40;1.63;;;12.60;31.60;;;;;;5067864;28;20487;-67
2023/01/18 12:30:13;;;;;;;3.17;1.40;;;12.10;32.50;;;;;;5073372;28;20475;-66
2023/01/18 12:33:03;;;;;;;2.50;1.70;;;11.60;33.50;;;;;;5069030;28;20432;-66
2023/01/18 12:35:46;;;;;;;3.20;2.90;;;11.10;33.90;;;;;;5072765;28;20556;-67
2023/01/18 12:38:21;;;;;;;3.25;2.50;;;10.70;35.30;;;;;;5072735;28;20221;-66
2023/01/18 12:41:16;;;;;;;5.55;1.77;;;10.40;36.20;;;;;;5066906;28;20185;-68
2023/01/18 12:43:56;;;;;;;2.63;1.50;;;10.00;36.60;;;;;;5051771;28;20197;-66
2023/01/18 12:46:28;;;;;;;3.35;1.75;;;9.80;38.40;;;;;;5051586;28;20229;-66
2023/01/18 12:48:59;;;;;;;2.60;1.52;;;9.50;39.00;;;;;;5054014;28;20194;-66
2023/01/18 12:51:30;;;;;;;2.65;1.70;;;9.40;39.80;;;;;;5072576;28;20205;-67
2023/01/18 12:54:02;;;;;;;2.83;1.60;;;9.20;40.00;;;;;;5070278;28;20189;-66
2023/01/18 12:56:32;;;;;;;2.60;1.58;;;9.10;40.00;;;;;;5073013;28;20284;-67
2023/01/18 12:59:04;;;;;;;2.92;1.80;;;8.90;40.20;;;;;;5072512;28;20209;-66
2023/01/18 13:01:37;;;;;;;2.67;1.80;;;8.70;40.40;;;;;;5072783;28;20282;-66
2023/01/18 13:04:08;;;;;;;2.63;1.60;;;8.60;40.60;;;;;;5073285;28;20197;-66
2023/01/18 13:06:38;;;;;;;2.90;1.42;;;8.50;41.00;;;;;;5072937;28;20247;-66
2023/01/18 13:09:12;;;;;;;2.88;2.00;;;8.50;41.50;;;;;;5073172;28;20218;-67
2023/01/18 13:11:42;;;;;;;3.60;1.70;;;8.60;41.60;;;;;;5072822;28;20224;-66
2023/01/18 13:14:18;;;;;;;3.45;1.73;;;8.60;41.50;;;;;;5072587;28;20243;-67
2023/01/18 13:16:50;;;;;;;2.72;1.65;;;8.60;41.40;;;;;;5072548;28;20188;-67
2023/01/18 13:19:22;;;;;;;2.40;1.40;;;8.60;42.00;;;;;;5072686;28;20194;-67
2023/01/18 13:22:02;;;;;;;2.10;1.40;;;8.70;42.10;;;;;;5072676;28;21226;-67
2023/01/18 13:24:45;;;;;;;3.03;1.90;;;8.80;41.70;;;;;;5072948;28;20194;-67
2023/01/18 13:27:13;;;;;;;3.20;1.73;;;8.80;41.60;;;;;;5072561;28;20270;-67
2023/01/18 13:29:42;;;;;;;2.35;1.40;;;8.90;41.90;;;;;;5072819;28;20255;-67
2023/01/18 13:32:25;;;;;;;3.85;1.73;;;8.70;41.30;;;;;;5072253;28;20686;-67
2023/01/18 13:35:00;;;;;;;2.85;1.90;;;8.60;41.10;;;;;;5072835;28;20280;-67
2023/01/18 13:37:44;;;;;;;2.85;1.85;;;8.50;41.10;;;;;;5072157;28;20674;-67
2023/01/18 13:40:25;;;;;;;2.30;1.60;;;8.40;41.60;;;;;;5072739;28;20198;-67
2023/01/18 13:42:52;;;;;;;3.10;1.70;;;8.30;41.50;;;;;;5072609;28;20228;-66